Latest Weather Observations for Lochington

IDQ60801

Issued at 9:35 pm EST Monday 22 September 2014 (issued every 30 minutes, with the page automatically refreshed every 10 minutes)

About weather observations | Map of weather stations | Latest weather observations for QLD | Other Formats
Station Details ID: 035139 Name: LOCHINGTON Lat: -23.94 Lon: 147.53 Height: 267.19 m
Data from the previous 72 hours. | See also: Recent months at Lochington
Date/Time
EST
Temp
°C
App
Temp
°C
Dew
Point
Rel
Hum
%
Delta-T
°C
Wind Press
QNH
hPa
Press
MSL
hPa
Rain
since 9 am
mm
Dir
 
Spd
km/h
Gust
km/h
Spd
kts
Gust
kts
22/09:30pm 14.2 13.5 11.9 86 1.2 E 7 11 4 6 1024.4 1023.5 4.2
22/09:00pm 14.3 12.8 11.8 85 1.4 E 11 17 6 9 1024.3 1023.4 4.2
22/08:30pm 14.2 11.8 11.5 84 1.5 ESE 15 22 8 12 1023.8 1023.0 4.2
22/08:00pm 14.5 11.4 11.7 83 1.5 ESE 19 26 10 14 1023.5 1022.6 4.2
22/07:30pm 14.8 11.8 11.8 82 1.6 ESE 19 33 10 18 1023.3 1022.4 4.2
22/07:00pm 14.7 12.1 12.0 84 1.5 ESE 17 24 9 13 1023.0 1022.1 4.2
22/06:30pm 15.1 11.5 11.7 80 1.9 ESE 22 32 12 17 1022.8 1021.9 4.2
22/06:00pm 15.4 12.9 12.2 81 1.8 E 17 26 9 14 1022.7 1021.8 4.2
22/05:30pm 15.4 13.7 12.5 83 1.6 ESE 13 20 7 11 1022.2 1021.3 4.2
22/05:00pm 15.4 13.0 12.7 84 1.5 ESE 17 26 9 14 1021.9 1021.0 4.2
22/04:30pm 15.5 13.1 12.6 83 1.6 ESE 17 30 9 16 1021.3 1020.4 4.2
22/04:00pm 15.5 12.5 12.4 82 1.7 ESE 20 28 11 15 1021.0 1020.1 4.2
22/03:30pm 15.7 13.0 13.0 84 1.5 ESE 19 28 10 15 1021.0 1020.1 4.2
22/03:00pm 15.8 13.2 13.1 84 1.5 ESE 19 30 10 16 1021.1 1020.2 4.2
22/02:30pm 15.7 13.9 13.4 86 1.3 ESE 15 28 8 15 1021.1 1020.2 4.2
22/02:00pm 15.5 11.9 13.0 85 1.4 E 24 41 13 22 1021.5 1020.6 4.0
22/01:30pm 15.8 12.7 13.5 86 1.3 ESE 22 33 12 18 1021.7 1020.8 4.0
22/01:00pm 15.8 12.4 13.6 87 1.2 E 24 33 13 18 1022.1 1021.2 4.0
22/12:30pm 15.2 12.4 13.2 88 1.1 ESE 20 35 11 19 1022.4 1021.5 4.0
22/12:00pm 15.1 12.4 13.6 91 0.8 ESE 20 30 11 16 1022.9 1022.0 3.8
22/11:30am 14.8 11.3 13.3 91 0.8 E 24 35 13 19 1023.5 1022.6 3.6
22/11:00am 14.4 11.6 13.3 93 0.6 E 20 32 11 17 1023.8 1023.0 3.4
22/10:30am 13.9 11.0 13.0 94 0.5 ESE 20 32 11 17 1024.2 1023.3 2.8
22/10:00am 13.7 10.8 12.8 94 0.5 E 20 28 11 15 1024.4 1023.5 2.0
22/09:30am 13.5 10.5 12.6 94 0.5 E 20 28 11 15 1024.4 1023.5 0.8
22/09:00am 13.5 10.6 12.2 92 0.7 E 19 28 10 15 1024.3 1023.4 60.2
22/08:30am 13.4 11.2 12.1 92 0.7 E 15 22 8 12 1024.4 1023.5 59.6
22/08:00am 13.2 10.1 12.1 93 0.6 ESE 20 32 11 17 1023.5 1022.6 59.4
22/07:30am 12.9 8.1 11.8 93 0.6 ESE 28 39 15 21 1023.1 1022.2 59.2
22/07:00am 12.8 9.1 11.5 92 0.7 ESE 22 32 12 17 1022.9 1022.0 58.2
22/06:30am 12.7 9.5 11.8 94 0.5 ESE 20 28 11 15 1022.8 1021.9 57.0
22/06:00am 12.8 11.0 12.0 95 0.4 SE 13 19 7 10 1023.2 1022.3 54.6
22/05:30am 12.9 11.4 12.0 94 0.5 S 11 19 6 10 1023.2 1022.3 52.0
22/05:00am 12.9 11.5 12.1 95 0.4 S 11 20 6 11 1022.9 1022.0 50.0
22/04:30am 12.9 11.8 12.1 95 0.4 SSW 9 15 5 8 1022.7 1021.8 47.6
22/04:00am 13.0 12.0 12.2 95 0.4 SSW 9 15 5 8 1022.3 1021.4 45.4
22/03:30am 12.9 11.8 12.1 95 0.4 SSW 9 17 5 9 1022.3 1021.4 43.8
22/03:00am 13.0 12.0 12.4 96 0.3 SSW 9 15 5 8 1022.2 1021.3 42.0
22/02:30am 13.1 12.5 12.3 95 0.4 SSW 7 15 4 8 1022.3 1021.4 40.0
22/02:00am 13.3 13.3 12.4 94 0.5 SW 4 7 2 4 1022.4 1021.5 35.6
22/01:30am 13.3 12.8 12.2 93 0.6 S 6 9 3 5 1022.2 1021.3 32.4
22/01:00am 13.6 13.0 12.2 91 0.8 S 7 13 4 7 1022.1 1021.2 28.6
22/12:30am 13.7 12.8 12.6 93 0.6 SE 9 13 5 7 1022.1 1021.2 26.2
22/12:00am 13.7 12.5 12.9 95 0.4 SE 11 17 6 9 1022.0 1021.1 24.4
 
Date/Time
EST
Temp
°C
App
Temp
°C
Dew
Point
Rel
Hum
%
Delta-T
°C
Wind Press
QNH
hPa
Press
MSL
hPa
Rain
since 9 am
mm
Dir
 
Spd
km/h
Gust
km/h
Spd
kts
Gust
kts
21/11:30pm 13.9 13.6 12.8 93 0.6 SE 6 9 3 5 1022.7 1021.8 21.4
21/11:00pm 14.1 14.2 12.7 91 0.8 S 4 7 2 4 1022.8 1021.9 18.0
21/10:30pm 13.9 13.6 12.6 92 0.7 SSE 6 9 3 5 1022.8 1021.9 17.6
21/10:00pm 14.1 14.4 12.1 88 1.1 SSW 2 6 1 3 1022.9 1022.0 17.4
21/09:30pm 14.7 14.9 12.0 84 1.5 SW 2 4 1 2 1022.8 1021.9 16.4
21/09:00pm 15.0 15.5 12.7 86 1.3 SW 2 4 1 2 1022.1 1021.2 15.6
21/08:30pm 15.0 14.9 12.1 83 1.6 E 4 7 2 4 1021.9 1021.0 15.6
21/08:00pm 15.1 14.5 12.2 83 1.6 NE 7 9 4 5 1021.8 1020.9 15.6
21/07:30pm 15.5 14.4 12.1 80 1.9 NE 9 13 5 7 1021.7 1020.8 15.6
21/07:00pm 16.2 14.2 11.6 74 2.5 ENE 13 20 7 11 1021.3 1020.4 15.6
21/06:30pm 17.0 14.6 11.5 70 3.0 ENE 15 22 8 12 1020.7 1019.8 15.6
21/06:00pm 17.2 14.9 11.7 70 3.0 E 15 20 8 11 1020.3 1019.3 15.6
21/05:30pm 17.8 16.0 12.0 69 3.2 E 13 19 7 10 1020.2 1019.2 15.6
21/05:00pm 17.7 15.0 11.7 68 3.3 ESE 17 22 9 12 1019.7 1018.8 15.6
21/04:30pm 17.8 15.6 13.3 75 2.6 ESE 17 24 9 13 1019.3 1018.4 15.6
21/04:00pm 17.3 14.9 12.8 75 2.5 ESE 17 24 9 13 1019.7 1018.8 15.6
21/03:30pm 17.5 16.5 13.4 77 2.3 ESE 11 17 6 9 1020.5 1019.5 15.6
21/03:00pm 16.7 16.2 12.5 76 2.3 ESE 7 15 4 8 1020.9 1020.0 15.6
21/02:30pm 17.3 15.8 13.2 77 2.3 ESE 13 20 7 11 1021.1 1020.2 15.6
21/02:00pm 17.1 16.7 15.3 89 1.1 ESE 11 19 6 10 1021.1 1020.2 15.6
21/01:30pm 14.7 14.5 13.6 93 0.6 S 7 17 4 9 1021.4 1020.5 15.0
21/01:00pm 14.4 14.1 12.8 90 0.9 S 6 9 3 5 1022.8 1021.9 14.0
21/12:30pm 14.3 13.9 12.9 91 0.8 SE 7 13 4 7 1023.4 1022.5 13.4
21/12:00pm 13.8 12.9 12.7 93 0.6 ESE 9 13 5 7 1023.6 1022.7 13.2
21/11:30am 13.6 11.9 12.3 92 0.7 SE 13 17 7 9 1024.1 1023.2 11.6
21/11:00am 13.7 12.3 12.3 91 0.8 S 11 19 6 10 1024.1 1023.2 9.4
21/10:30am 13.6 12.0 12.7 94 0.5 SSE 13 20 7 11 1023.9 1023.1 7.8
21/10:00am 13.1 11.2 11.8 92 0.7 SSW 13 24 7 13 1024.3 1023.4 6.2
21/09:30am 12.8 9.9 11.0 89 1.0 WSW 17 32 9 17 1024.7 1023.8 4.4
21/09:00am 13.8 13.5 12.7 93 0.6 S 6 11 3 6 1023.5 1022.6 12.0
21/08:30am 12.5 11.8 11.4 93 0.6 SW 6 11 3 6 1023.2 1022.3 12.0
21/08:00am 11.2 7.7 10.1 93 0.6 S 19 30 10 16 1023.0 1022.1 12.0
21/07:30am 14.7 8.6 6.5 58 4.0 SSW 28 39 15 21 1022.5 1021.6 0.6
21/07:29am 15.2 9.1 6.7 57 4.2 SSW 28 39 15 21 1022.5 1021.6 0.6
21/07:00am 15.6 15.1 10.8 73 2.6 S 4 7 2 4 1021.1 1020.2 0.6
21/06:30am 14.7 14.0 10.1 74 2.4 SSE 4 6 2 3 1020.7 1019.8 0.6
21/06:00am 14.5 12.7 9.3 71 2.7 E 9 11 5 6 1019.5 1018.6 0.6
21/05:30am 15.1 13.7 9.7 70 2.8 E 7 9 4 5 1019.1 1018.2 0.6
21/05:00am 15.2 15.4 11.8 80 1.9 E 2 4 1 2 1019.3 1018.4 0.6
21/04:30am 15.2 14.9 11.4 78 2.1 E 4 6 2 3 1018.8 1017.9 0.6
21/04:00am 15.3 14.1 11.7 79 2.0 E 9 13 5 7 1018.1 1017.2 0.6
21/03:30am 15.7 14.8 12.5 81 1.8 E 9 13 5 7 1018.2 1017.3 0.6
21/03:00am 15.5 13.0 12.3 81 1.8 E 17 24 9 13 1018.3 1017.4 0.6
21/02:30am 16.4 14.9 12.0 75 2.4 SE 11 20 6 11 1020.1 1019.1 0.6
21/02:00am 19.3 17.6 11.1 59 4.5 ESE 11 17 6 9 1019.5 1018.6 0.0
21/01:30am 20.2 18.0 10.9 55 5.1 E 13 19 7 10 1019.7 1018.8 0.0
21/01:00am 20.5 18.0 11.2 55 5.2 E 15 24 8 13 1019.7 1018.8 0.0
21/12:30am 20.9 18.2 10.4 51 5.8 E 15 22 8 12 1019.7 1018.8 0.0
21/12:00am 21.1 18.5 9.4 47 6.3 E 13 20 7 11 1019.8 1018.9 0.0
 
Date/Time
EST
Temp
°C
App
Temp
°C
Dew
Point
Rel
Hum
%
Delta-T
°C
Wind Press
QNH
hPa
Press
MSL
hPa
Rain
since 9 am
mm
Dir
 
Spd
km/h
Gust
km/h
Spd
kts
Gust
kts
20/11:30pm 21.6 16.9 5.1 34 8.3 E 19 26 10 14 1019.3 1018.4 0.0
20/11:00pm 20.2 17.1 3.4 33 8.0 E 9 20 5 11 1019.1 1018.2 0.0
20/10:30pm 20.4 17.7 3.6 33 8.1 E 7 9 4 5 1018.5 1017.6 0.0
20/10:00pm 19.1 16.6 4.5 38 7.1 SE 7 9 4 5 1018.0 1017.1 0.0
20/09:30pm 17.9 16.5 3.8 39 6.7 CALM 0 0 0 0 1018.3 1017.4 0.0
20/09:00pm 18.6 17.4 4.4 39 6.9 CALM 0 2 0 1 1018.3 1017.4 0.0
20/08:30pm 19.4 18.1 4.0 36 7.4 CALM 0 0 0 0 1018.0 1017.1 0.0
20/08:00pm 20.6 19.2 3.8 33 8.1 CALM 0 0 0 0 1017.7 1016.8 0.0
20/07:30pm 20.9 19.5 3.6 32 8.4 CALM 0 0 0 0 1017.3 1016.4 0.0
20/07:00pm 22.4 20.6 3.5 29 9.2 SSE 2 4 1 2 1016.8 1015.8 0.0
20/06:30pm 23.6 21.3 3.0 26 10.1 SE 4 6 2 3 1016.4 1015.4 0.0
20/06:00pm 25.5 23.2 2.9 23 11.1 S 4 7 2 4 1015.8 1014.9 0.0
20/05:30pm 26.6 24.0 3.2 22 11.7 S 6 7 3 4 1015.6 1014.7 0.0
20/05:00pm 26.7 24.0 3.9 23 11.5 SE 7 11 4 6 1015.3 1014.4 0.0
20/04:30pm 27.6 24.7 4.6 23 11.9 S 9 17 5 9 1015.0 1014.1 0.0
20/04:00pm 27.5 25.4 3.9 22 12.0 E 4 7 2 4 1014.8 1013.9 0.0
20/03:30pm 27.3 24.1 5.0 24 11.6 SSE 11 17 6 9 1014.6 1013.7 0.0
20/03:00pm 28.3 25.8 6.4 25 11.7 E 9 19 5 10 1014.6 1013.7 0.0
20/02:30pm 27.7 24.9 5.3 24 11.7 S 9 17 5 9 1014.9 1014.0 0.0
20/02:00pm 27.6 25.4 5.2 24 11.7 E 6 15 3 8 1015.2 1014.3 0.0
20/01:30pm 27.9 25.7 6.1 25 11.6 ESE 7 17 4 9 1015.6 1014.7 0.0
20/01:00pm 26.8 24.2 6.2 27 10.9 E 9 22 5 12 1016.4 1015.4 0.0
20/12:30pm 26.0 23.0 7.6 31 9.9 ESE 13 20 7 11 1016.9 1015.9 0.0
20/12:00pm 26.2 24.1 8.2 32 9.8 E 9 17 5 9 1017.5 1016.6 0.0
20/11:30am 24.4 22.2 8.0 35 8.8 ENE 9 19 5 10 1018.0 1017.1 0.0
20/11:00am 24.5 22.7 9.6 39 8.2 ESE 9 17 5 9 1018.4 1017.5 0.0
20/10:30am 23.6 21.6 10.3 43 7.4 E 11 20 6 11 1018.7 1017.8 0.0
20/10:00am 22.6 20.6 10.1 45 6.9 ESE 11 19 6 10 1019.2 1018.3 0.0
20/09:30am 22.0 20.4 10.2 47 6.5 E 9 17 5 9 1019.5 1018.6 0.0
20/09:00am 21.2 18.2 9.4 47 6.4 E 15 20 8 11 1019.6 1018.7 0.0
20/08:30am 20.7 17.6 8.7 46 6.4 E 15 22 8 12 1019.7 1018.8 0.0
20/08:00am 19.4 15.0 2.7 33 7.8 ESE 15 24 8 13 1019.5 1018.6 0.0
20/07:30am 18.9 14.7 1.4 31 8.0 ESE 13 19 7 10 1019.2 1018.3 0.0
20/07:00am 17.0 14.4 4.0 42 6.1 ESE 7 9 4 5 1018.9 1018.0 0.0
20/06:30am 14.7 12.0 3.8 48 5.1 E 7 9 4 5 1018.5 1017.6 0.0
20/06:00am 14.3 11.3 4.0 50 4.8 E 9 11 5 6 1018.1 1017.2 0.0
20/05:30am 14.1 11.5 6.2 59 3.8 E 9 11 5 6 1017.4 1016.5 0.0
20/05:00am 13.3 11.0 5.5 59 3.7 ESE 7 11 4 6 1017.2 1016.2 0.0
20/04:30am 15.1 12.2 6.4 56 4.3 E 11 15 6 8 1016.8 1015.8 0.0
20/04:00am 13.7 10.8 4.8 55 4.2 E 9 11 5 6 1016.5 1015.5 0.0
20/03:30am 14.4 11.9 5.0 53 4.5 ESE 7 9 4 5 1016.6 1015.6 0.0
20/03:00am 14.9 11.7 5.1 52 4.7 E 11 13 6 7 1016.4 1015.4 0.0
20/02:30am 15.0 12.2 2.2 42 5.8 SE 6 7 3 4 1016.5 1015.5 0.0
20/02:00am 16.3 13.4 -0.8 31 7.3 SSE 4 7 2 4 1016.8 1015.8 0.0
20/01:30am 16.6 13.5 -0.1 32 7.2 S 6 11 3 6 1017.0 1016.0 0.0
20/01:00am 17.1 13.9 -0.6 30 7.6 S 6 11 3 6 1017.1 1016.1 0.0
20/12:30am 16.8 13.6 -0.4 31 7.4 WSW 6 11 3 6 1017.1 1016.1 0.0
20/12:00am 17.2 14.0 -0.5 30 7.6 SW 6 9 3 5 1017.2 1016.2 0.0
 
Date/Time
EST
Temp
°C
App
Temp
°C
Dew
Point
Rel
Hum
%
Delta-T
°C
Wind Press
QNH
hPa
Press
MSL
hPa
Rain
since 9 am
mm
Dir
 
Spd
km/h
Gust
km/h
Spd
kts
Gust
kts
19/11:30pm 17.7 15.2 -1.0 28 8.0 E 2 4 1 2 1017.4 1016.5 0.0
19/11:00pm 19.3 15.9 -0.7 26 8.8 WSW 7 13 4 7 1017.1 1016.1 0.0
19/10:30pm 19.8 16.5 0.3 27 8.8 W 7 13 4 7 1017.1 1016.1 0.0
19/10:00pm 21.3 18.1 1.0 26 9.4 SW 7 15 4 8 1017.1 1016.1 0.0

Other Formats:

Comma delimited format used in spreadsheet applications
http://www.bom.gov.au/fwo/IDQ60801/IDQ60801.94399.axf

JavaScript Object Notation format (JSON) in row-major order
http://www.bom.gov.au/fwo/IDQ60801/IDQ60801.94399.json